Terminal Aerodrome Forecast
Issued by NWS Greer, SC

Home | Current Version | Previous Version | Text Only | Print | Product List | Glossary On
Versions: 1 2 3 4 5 6 7 8 9 10 11 12 13 14 15 16 17 18 19 20 21 22 23
000
FTUS42 KGSP 281732
TAFGSP
TAF
KGSP 281732Z 2818/2918 25010G18KT P6SM SCT045
      TEMPO 2818/2820 BKN045
     FM282300 30006KT P6SM FEW045
     FM290100 34006KT P6SM FEW250
     FM290600 02004KT P6SM SCT250
     FM291600 12004KT P6SM SCT100 BKN250=

USA.gov is the U.S. government's official web portal to all federal, state and local government web resources and services.